Time;durP1;ratioP1;P1;durP2;ratioP2;P2;SDS_P1;SDS_P2;PMS_P1;PMS_P2;Temp;Humidity;BMP_temperature;BMP_pressure;BME280_temperature;BME280_humidity;BME280_pressure;Samples;Min_cycle;Max_cycle;Signal;HPM_P1;HPM_P2
2022/04/15 00:07:29;;;;;;;1.65;1.00;;;13.40;70.00;;;;;;20727821;28;20654;-76
2022/04/15 00:17:30;;;;;;;1.13;0.77;;;13.40;69.90;;;;;;20726396;28;20646;-76
2022/04/15 00:27:31;;;;;;;1.65;0.82;;;13.40;69.80;;;;;;20726026;28;20103;-77
2022/04/15 00:37:31;;;;;;;1.85;1.05;;;13.40;69.70;;;;;;20741614;28;20046;-77
2022/04/15 00:47:51;;;;;;;1.75;1.10;;;13.40;69.70;;;;;;20740435;28;20053;-77
2022/04/15 00:57:55;;;;;;;1.10;0.60;;;13.40;69.60;;;;;;20739788;28;20556;-78
2022/04/15 01:07:56;;;;;;;1.05;0.70;;;13.30;69.50;;;;;;20706512;28;20037;-78
2022/04/15 01:17:57;;;;;;;1.73;1.02;;;13.30;69.50;;;;;;20706141;28;20811;-81
2022/04/15 01:27:57;;;;;;;1.35;0.80;;;13.30;69.40;;;;;;20738372;28;20049;-78
2022/04/15 01:37:59;;;;;;;2.42;0.95;;;13.30;69.40;;;;;;20704565;28;20041;-78
2022/04/15 01:48:00;;;;;;;2.33;0.90;;;13.30;69.30;;;;;;20735392;28;20061;-80
2022/04/15 01:58:00;;;;;;;1.63;0.80;;;13.30;69.30;;;;;;20717321;28;20038;-78
2022/04/15 02:08:01;;;;;;;3.85;0.77;;;13.30;69.20;;;;;;20702222;28;20659;-79
2022/04/15 02:18:02;;;;;;;1.27;0.70;;;13.30;69.20;;;;;;20732949;28;20476;-80
2022/04/15 02:28:02;;;;;;;2.20;0.90;;;13.30;69.10;;;;;;21050293;23;20149;-72
2022/04/15 02:38:04;;;;;;;2.97;0.90;;;13.20;69.10;;;;;;20636775;28;20042;-71
2022/04/15 02:48:04;;;;;;;1.55;0.80;;;13.20;69.00;;;;;;20644610;28;20088;-71
2022/04/15 02:58:05;;;;;;;1.92;1.00;;;13.20;68.90;;;;;;20627686;28;20802;-71
2022/04/15 03:08:06;;;;;;;1.15;0.88;;;13.20;68.90;;;;;;20660904;28;20045;-74
2022/04/15 03:18:07;;;;;;;1.48;0.90;;;13.20;69.00;;;;;;20626416;28;20401;-71
2022/04/15 03:28:07;;;;;;;1.38;0.80;;;13.20;69.00;;;;;;20658687;28;20128;-72
2022/04/15 03:38:08;;;;;;;2.42;1.20;;;13.20;69.00;;;;;;20626564;28;20396;-71
2022/04/15 03:48:08;;;;;;;1.40;0.93;;;13.20;69.00;;;;;;20641891;28;20073;-71
2022/04/15 03:58:11;;;;;;;0.82;0.70;;;13.20;69.00;;;;;;20659348;28;20081;-71
2022/04/15 04:08:12;;;;;;;1.38;0.98;;;13.10;69.00;;;;;;20610493;28;20034;-72
2022/04/15 04:18:14;;;;;;;3.93;1.83;;;13.10;69.00;;;;;;20662247;28;20459;-70
2022/04/15 04:28:15;;;;;;;2.20;1.50;;;13.10;69.10;;;;;;20672318;28;20694;-70
2022/04/15 04:38:15;;;;;;;2.15;1.23;;;13.10;69.10;;;;;;20670290;28;20069;-72
2022/04/15 04:48:16;;;;;;;3.45;1.52;;;13.10;69.10;;;;;;20669513;28;20241;-71
2022/04/15 04:58:16;;;;;;;3.35;1.48;;;13.10;69.10;;;;;;20652584;28;20061;-74
2022/04/15 05:08:17;;;;;;;3.30;1.48;;;13.10;69.10;;;;;;20668894;28;20113;-72
2022/04/15 05:18:18;;;;;;;3.47;1.40;;;13.10;69.10;;;;;;20652468;28;20586;-72
2022/04/15 05:28:18;;;;;;;4.63;1.25;;;13.10;69.10;;;;;;20634609;28;20293;-72
2022/04/15 05:38:19;;;;;;;3.08;1.52;;;13.10;69.10;;;;;;20665757;28;20051;-73
2022/04/15 05:48:19;;;;;;;1.40;0.90;;;13.10;69.10;;;;;;20633434;28;20410;-72
2022/04/15 05:58:20;;;;;;;2.40;1.48;;;13.00;69.00;;;;;;20665113;28;20042;-72
2022/04/15 06:08:21;;;;;;;2.92;1.60;;;13.10;69.00;;;;;;20647593;28;20030;-71
2022/04/15 06:18:22;;;;;;;2.35;1.13;;;13.00;69.00;;;;;;20646921;28;20552;-74
2022/04/15 06:28:23;;;;;;;2.42;1.30;;;13.00;69.00;;;;;;20616890;28;20042;-78
2022/04/15 06:38:24;;;;;;;2.58;1.27;;;13.00;69.00;;;;;;20617653;28;20392;-81
2022/04/15 06:48:24;;;;;;;4.05;1.20;;;13.00;69.00;;;;;;20672357;28;20026;-76
2022/04/15 06:58:25;;;;;;;3.60;1.35;;;13.00;69.00;;;;;;20665742;28;20039;-73
2022/04/15 07:08:25;;;;;;;2.85;1.20;;;13.00;69.00;;;;;;20665381;28;20497;-77
2022/04/15 07:18:26;;;;;;;2.45;1.38;;;13.00;69.00;;;;;;20660645;28;20491;-75
2022/04/15 07:28:31;;;;;;;4.83;1.70;;;13.00;69.00;;;;;;20665009;28;20031;-73
2022/04/15 07:38:32;;;;;;;4.63;1.52;;;13.00;69.00;;;;;;20664028;28;20985;-72
2022/04/15 07:48:32;;;;;;;3.67;2.17;;;13.00;68.90;;;;;;20656833;28;20030;-76
2022/04/15 07:58:33;;;;;;;5.43;1.33;;;13.00;68.90;;;;;;20643936;28;20066;-74
2022/04/15 08:08:34;;;;;;;3.63;2.50;;;13.00;68.90;;;;;;20645921;28;20402;-74
2022/04/15 08:18:35;;;;;;;10.15;3.13;;;12.90;68.90;;;;;;20628315;28;20045;-74
2022/04/15 08:28:35;;;;;;;6.13;2.58;;;12.80;68.80;;;;;;20659435;28;20038;-73
2022/04/15 08:38:36;;;;;;;7.43;2.33;;;12.70;68.80;;;;;;20675422;28;20436;-76
2022/04/15 08:48:37;;;;;;;3.88;2.08;;;12.70;68.80;;;;;;20657959;28;20173;-73
2022/04/15 08:58:38;;;;;;;6.10;2.20;;;12.80;68.70;;;;;;20624873;28;20544;-73
2022/04/15 09:09:02;;;;;;;3.20;1.88;;;12.80;68.80;;;;;;20655941;28;20121;-72
2022/04/15 09:19:04;;;;;;;4.63;2.17;;;12.80;68.80;;;;;;20671054;28;20405;-74
2022/04/15 09:29:05;;;;;;;6.35;2.65;;;12.90;68.90;;;;;;20639072;28;20052;-73
2022/04/15 09:39:12;;;;;;;8.57;2.28;;;13.00;68.90;;;;;;20670254;28;20038;-71
2022/04/15 09:49:13;;;;;;;5.72;2.28;;;13.00;69.00;;;;;;20653131;28;20026;-71
2022/04/15 09:59:15;;;;;;;4.70;2.92;;;13.00;69.10;;;;;;20650938;28;20061;-71
2022/04/15 10:09:16;;;;;;;4.50;2.50;;;13.00;69.10;;;;;;20618592;28;20042;-74
2022/04/15 10:19:16;;;;;;;5.90;2.55;;;13.00;69.20;;;;;;20616789;28;20048;-71
2022/04/15 10:29:17;;;;;;;5.20;2.00;;;13.00;69.20;;;;;;20650001;28;20628;-78
2022/04/15 10:39:18;;;;;;;5.97;2.20;;;13.00;69.40;;;;;;20648208;28;20504;-79
2022/04/15 10:49:26;;;;;;;3.17;1.70;;;13.00;69.40;;;;;;20647049;28;20623;-73
2022/04/15 11:09:54;;;;;;;6.75;2.45;;;12.90;69.40;;;;;;20645734;28;20038;-72
2022/04/15 11:19:54;;;;;;;5.25;2.20;;;12.90;69.40;;;;;;20663323;28;20470;-75
2022/04/15 11:29:55;;;;;;;5.18;2.00;;;12.90;69.50;;;;;;20638831;28;20080;-73
2022/04/15 11:39:58;;;;;;;5.30;2.45;;;12.90;69.50;;;;;;20640061;28;20042;-73
2022/04/15 11:49:58;;;;;;;6.15;2.15;;;12.90;69.60;;;;;;20660604;28;20034;-78
2022/04/15 11:59:59;;;;;;;4.53;2.72;;;12.90;69.70;;;;;;20673955;28;20384;-79
2022/04/15 12:09:59;;;;;;;6.93;2.78;;;12.90;69.90;;;;;;20674283;28;20030;-78
2022/04/15 12:20:01;;;;;;;6.35;2.92;;;13.00;70.00;;;;;;20672590;28;20034;-78
2022/04/15 12:30:02;;;;;;;5.45;2.33;;;12.90;70.10;;;;;;20656002;28;20042;-78
2022/04/15 12:40:08;;;;;;;5.65;3.13;;;12.90;70.10;;;;;;20671195;28;20047;-77
2022/04/15 12:50:23;;;;;;;4.70;2.17;;;13.00;70.10;;;;;;20655999;28;20065;-76
2022/04/15 13:00:23;;;;;;;9.18;3.00;;;13.00;70.20;;;;;;20654481;28;20045;-78
2022/04/15 13:10:24;;;;;;;6.30;3.10;;;13.00;70.10;;;;;;20670273;28;20034;-78
2022/04/15 13:20:25;;;;;;;8.23;3.05;;;13.00;70.30;;;;;;20652103;28;20172;-79
2022/04/15 13:30:25;;;;;;;4.95;2.40;;;13.10;70.40;;;;;;20650981;28;20042;-80
2022/04/15 13:40:26;;;;;;;5.65;2.17;;;13.10;70.40;;;;;;20663705;28;20121;-80
2022/04/15 13:50:26;;;;;;;5.05;2.78;;;13.00;70.30;;;;;;20664733;28;20170;-80
2022/04/15 14:00:27;;;;;;;7.28;3.08;;;13.00;70.30;;;;;;20648559;28;20065;-78
2022/04/15 14:10:28;;;;;;;6.63;3.10;;;13.00;70.30;;;;;;20666533;28;20058;-77
2022/04/15 14:20:30;;;;;;;8.20;3.97;;;13.00;70.40;;;;;;20642117;28;20289;-75
2022/04/15 14:30:32;;;;;;;6.82;2.70;;;13.00;70.50;;;;;;20570891;28;20098;-77
2022/04/15 14:40:33;;;;;;;5.70;3.08;;;13.00;70.50;;;;;;20536747;28;20477;-77
2022/04/15 14:50:33;;;;;;;5.97;3.63;;;13.00;71.10;;;;;;20593565;28;20026;-77
2022/04/15 15:00:38;;;;;;;7.28;4.18;;;13.00;70.50;;;;;;20631216;28;20038;-77
2022/04/15 15:10:38;;;;;;;4.93;2.97;;;12.90;70.40;;;;;;20648980;28;20033;-76
2022/04/15 15:20:39;;;;;;;5.88;2.88;;;12.90;70.40;;;;;;20648325;28;20124;-77
2022/04/15 15:30:45;;;;;;;5.05;3.42;;;12.90;70.30;;;;;;20643580;28;20129;-77
2022/04/15 15:40:53;;;;;;;8.83;3.80;;;12.90;70.30;;;;;;20629538;28;20114;-77
2022/04/15 15:50:54;;;;;;;5.47;3.72;;;12.90;70.20;;;;;;20616730;28;20053;-73
2022/04/15 16:00:54;;;;;;;5.60;3.72;;;12.90;70.30;;;;;;20623110;28;20049;-76
2022/04/15 16:10:55;;;;;;;5.68;3.10;;;12.90;70.30;;;;;;20652332;28;20105;-75
2022/04/15 16:20:55;;;;;;;5.10;2.75;;;12.80;70.20;;;;;;20657261;28;20042;-75
2022/04/15 16:30:57;;;;;;;6.32;3.00;;;12.80;70.10;;;;;;20654271;28;20146;-77
2022/04/15 16:40:58;;;;;;;4.93;3.15;;;12.90;70.20;;;;;;20683206;28;20089;-78
2022/04/15 16:51:01;;;;;;;6.18;3.13;;;12.90;70.20;;;;;;20637561;28;20030;-74
2022/04/15 17:01:01;;;;;;;4.80;2.28;;;12.90;70.20;;;;;;20652553;28;20424;-73
2022/04/15 17:11:03;;;;;;;5.03;2.40;;;12.90;70.30;;;;;;20635832;28;20104;-74
2022/04/15 17:21:05;;;;;;;6.60;3.58;;;12.90;70.30;;;;;;20635381;28;20042;-75
2022/04/15 17:31:06;;;;;;;5.63;2.88;;;12.90;70.30;;;;;;20631694;28;20026;-75
2022/04/15 17:41:06;;;;;;;3.95;2.17;;;12.80;70.20;;;;;;20650096;28;20176;-75
2022/04/15 17:51:07;;;;;;;3.67;2.35;;;12.80;70.20;;;;;;20648891;28;20484;-75
2022/04/15 18:01:07;;;;;;;5.07;2.85;;;12.80;70.20;;;;;;20631382;28;20045;-76
2022/04/15 18:11:08;;;;;;;3.28;2.10;;;12.80;70.20;;;;;;20631650;28;20054;-75
2022/04/15 18:21:09;;;;;;;5.53;1.92;;;12.80;70.20;;;;;;20662509;28;20042;-75
2022/04/15 18:31:12;;;;;;;3.08;1.90;;;12.80;70.20;;;;;;20645762;28;20052;-74
2022/04/15 18:41:12;;;;;;;3.45;2.00;;;12.80;70.10;;;;;;20644866;28;20070;-74
2022/04/15 19:01:32;;;;;;;3.50;1.55;;;12.80;70.10;;;;;;20632466;28;20396;-76
2022/04/15 19:11:32;;;;;;;5.35;2.05;;;12.80;70.10;;;;;;20659483;28;20034;-76
2022/04/15 19:21:33;;;;;;;3.05;1.85;;;12.80;70.10;;;;;;20643463;28;20089;-76
2022/04/15 19:31:34;;;;;;;3.53;2.20;;;12.80;70.10;;;;;;20642638;28;20159;-75
2022/04/15 19:41:34;;;;;;;2.35;1.70;;;12.70;70.00;;;;;;20610094;28;20149;-76
2022/04/15 19:51:35;;;;;;;2.17;1.67;;;12.70;70.00;;;;;;20668150;28;20034;-75
2022/04/15 20:01:36;;;;;;;2.80;1.85;;;12.80;70.00;;;;;;20640738;28;20129;-76
2022/04/15 20:11:36;;;;;;;2.67;1.63;;;12.80;70.00;;;;;;20640387;28;20081;-76
2022/04/15 20:21:37;;;;;;;2.40;1.60;;;12.70;69.90;;;;;;20640153;28;20125;-76
2022/04/15 20:31:38;;;;;;;2.65;1.40;;;12.70;69.90;;;;;;20655512;28;20042;-75
2022/04/15 20:41:39;;;;;;;3.53;1.90;;;12.70;69.90;;;;;;20638704;28;20053;-75
2022/04/15 20:51:40;;;;;;;2.75;1.50;;;12.70;69.90;;;;;;20637053;28;20070;-75
2022/04/15 21:01:40;;;;;;;2.20;1.13;;;12.70;69.90;;;;;;20636451;28;20065;-75
2022/04/15 21:11:41;;;;;;;3.72;1.40;;;12.70;69.80;;;;;;20651835;28;20125;-75
2022/04/15 21:21:42;;;;;;;2.03;1.00;;;12.70;69.80;;;;;;20634734;28;20081;-76
2022/04/15 21:31:43;;;;;;;3.70;2.10;;;12.70;69.80;;;;;;20634073;28;20081;-75
2022/04/15 21:41:44;;;;;;;2.10;1.60;;;12.70;69.80;;;;;;20633434;28;20042;-76
2022/04/15 22:02:05;;;;;;;3.15;2.17;;;12.60;69.70;;;;;;20650226;28;20034;-75
2022/04/15 22:12:06;;;;;;;2.83;1.55;;;12.80;69.80;;;;;;20646505;28;20034;-75
2022/04/15 22:22:11;;;;;;;5.00;1.77;;;12.70;69.70;;;;;;20662300;28;20042;-75
2022/04/15 22:32:13;;;;;;;2.30;1.30;;;12.70;69.70;;;;;;20630112;28;20126;-75
2022/04/15 22:42:14;;;;;;;2.67;1.35;;;12.70;69.90;;;;;;20645432;28;20042;-76
2022/04/15 22:52:14;;;;;;;3.60;1.98;;;12.70;69.70;;;;;;20651875;28;20052;-75
2022/04/15 23:02:15;;;;;;;3.20;1.42;;;12.60;69.60;;;;;;20610113;28;20165;-74
2022/04/15 23:12:16;;;;;;;2.80;1.60;;;12.60;69.60;;;;;;20627402;28;20034;-75
2022/04/15 23:22:16;;;;;;;3.67;1.27;;;12.60;69.60;;;;;;20649246;28;20301;-76
2022/04/15 23:32:18;;;;;;;1.77;0.82;;;12.60;69.60;;;;;;20669355;28;20104;-75
2022/04/15 23:42:19;;;;;;;2.15;1.23;;;12.60;69.60;;;;;;20671020;28;20039;-75
2022/04/15 23:52:20;;;;;;;1.70;1.10;;;12.60;69.60;;;;;;20668780;28;20388;-75
